Larkspur, California
Current Conditions -  °F | °C
As of 10:35 PM on Thursday 30 Oct 2014 (Local Time) from KDVO Reporting Station
NA  
Wind Chill: 61°   Ceiling: NA
Heat Index: 61°   Visibility: NA
Dew Point: 57°   Wind: 3mph
Humidity: 88%   Direction: 260°W
Pressure: 29.91"   Gusts: NA
Location:  37.93°N, 122.53°W
Report Text: KDVO 310535Z AUTO 26003KT 16/14 A2991 RMK AO2
Loading
Personal Weather Stations






























Interactive Weather Map
Tropical Storm Tracking
New forecast layout! Learn more

10-Day Weather Forecast

Advertisements
Track Severe Weather on mobile